Time;durP1;ratioP1;P1;durP2;ratioP2;P2;SDS_P1;SDS_P2;PMS_P1;PMS_P2;Temp;Humidity;BMP_temperature;BMP_pressure;BME280_temperature;BME280_humidity;BME280_pressure;Samples;Min_cycle;Max_cycle;Signal;HPM_P1;HPM_P2
2022/08/23 00:02:19;;;;;;;3.90;2.10;;;;;;;;;;5159229;27;20057;-58
2022/08/23 00:04:45;;;;;;;3.50;2.22;;;;;;;;;;5158891;27;20019;-58
2022/08/23 00:07:12;;;;;;;2.83;2.00;;;;;;;;;;5158516;27;20360;-58
2022/08/23 00:09:38;;;;;;;3.03;2.08;;;;;;;;;;5158216;27;20421;-58
2022/08/23 00:12:07;;;;;;;3.55;1.70;;;;;;;;;;5158399;27;20200;-58
2022/08/23 00:14:34;;;;;;;5.00;2.45;;;;;;;;;;5159029;27;20026;-58
2022/08/23 00:17:00;;;;;;;2.30;1.67;;;;;;;;;;5158643;27;20109;-58
2022/08/23 00:19:26;;;;;;;3.05;1.60;;;;;;;;;;5158577;27;20484;-58
2022/08/23 00:21:53;;;;;;;5.03;2.38;;;;;;;;;;5158756;27;20133;-58
2022/08/23 00:24:20;;;;;;;6.30;1.88;;;;;;;;;;5158266;27;20023;-58
2022/08/23 00:27:06;;;;;;;2.67;1.90;;;;;;;;;;5157757;27;20092;-58
2022/08/23 00:29:49;;;;;;;4.95;2.28;;;;;;;;;;5158731;27;20027;-58
2022/08/23 00:32:19;;;;;;;2.88;2.05;;;;;;;;;;5158345;27;20026;-58
2022/08/23 00:34:45;;;;;;;3.25;2.50;;;;;;;;;;5158086;27;20037;-57
2022/08/23 00:37:11;;;;;;;2.88;2.38;;;;;;;;;;5158017;27;20027;-58
2022/08/23 00:39:39;;;;;;;3.33;2.58;;;;;;;;;;5157948;27;20461;-58
2022/08/23 00:47:58;;;;;;;2.95;1.77;;;;;;;;;;5157862;27;20026;-58
2022/08/23 00:50:39;;;;;;;3.40;2.38;;;;;;;;;;5158114;27;20031;-58
2022/08/23 00:53:12;;;;;;;2.92;2.05;;;;;;;;;;5157913;27;20026;-58
2022/08/23 00:55:40;;;;;;;3.17;2.22;;;;;;;;;;5158068;27;20026;-58
2022/08/23 00:58:07;;;;;;;6.47;2.85;;;;;;;;;;5157497;27;20019;-58
2022/08/23 01:00:34;;;;;;;3.72;2.25;;;;;;;;;;5157276;27;20484;-58
2022/08/23 01:03:01;;;;;;;4.55;2.10;;;;;;;;;;5157782;27;20058;-58
2022/08/23 01:05:30;;;;;;;4.57;2.88;;;;;;;;;;5158235;27;20027;-58
2022/08/23 01:07:57;;;;;;;3.53;2.10;;;;;;;;;;5157818;27;20033;-58
2022/08/23 01:10:30;;;;;;;3.25;2.22;;;;;;;;;;5157268;27;20105;-58
2022/08/23 01:12:59;;;;;;;3.45;2.60;;;;;;;;;;5157475;27;20027;-58
2022/08/23 01:15:28;;;;;;;5.53;2.47;;;;;;;;;;5157691;27;20360;-58
2022/08/23 01:17:56;;;;;;;2.33;1.73;;;;;;;;;;5157087;27;20368;-58
2022/08/23 01:20:24;;;;;;;9.23;2.85;;;;;;;;;;5157082;27;20044;-58
2022/08/23 01:22:58;;;;;;;4.30;2.33;;;;;;;;;;5157559;27;20075;-58
2022/08/23 01:25:26;;;;;;;4.57;2.67;;;;;;;;;;5156946;27;20369;-58
2022/08/23 01:27:52;;;;;;;2.90;2.20;;;;;;;;;;5156913;27;20018;-57
2022/08/23 01:30:20;;;;;;;3.10;2.40;;;;;;;;;;5157222;27;20033;-58
2022/08/23 01:32:53;;;;;;;3.45;1.83;;;;;;;;;;5156416;27;20488;-58
2022/08/23 01:35:21;;;;;;;4.22;2.47;;;;;;;;;;5157704;27;20065;-58
2022/08/23 01:37:47;;;;;;;3.20;2.38;;;;;;;;;;5156764;27;20019;-58
2022/08/23 01:40:13;;;;;;;3.50;2.20;;;;;;;;;;5156716;27;20054;-58
2022/08/23 01:42:40;;;;;;;3.05;2.53;;;;;;;;;;5156249;27;20463;-58
2022/08/23 01:45:07;;;;;;;3.33;2.28;;;;;;;;;;5156627;27;20324;-58
2022/08/23 01:47:33;;;;;;;3.88;2.20;;;;;;;;;;5156937;27;20467;-58
2022/08/23 01:49:59;;;;;;;3.38;2.83;;;;;;;;;;5157079;27;20079;-57
2022/08/23 01:52:26;;;;;;;3.22;1.80;;;;;;;;;;5156631;27;20099;-57
2022/08/23 01:54:53;;;;;;;4.55;2.17;;;;;;;;;;5157250;27;20027;-58
2022/08/23 01:57:19;;;;;;;6.28;3.33;;;;;;;;;;5156345;27;20046;-58
2022/08/23 01:59:45;;;;;;;5.85;2.78;;;;;;;;;;5156351;27;20193;-58
2022/08/23 02:02:11;;;;;;;5.43;2.88;;;;;;;;;;5156347;27;20019;-58
2022/08/23 02:04:37;;;;;;;9.35;2.63;;;;;;;;;;5156836;27;20046;-58
2022/08/23 02:07:03;;;;;;;3.28;2.65;;;;;;;;;;5156233;27;20023;-57
2022/08/23 02:09:30;;;;;;;5.60;3.28;;;;;;;;;;5156126;27;20011;-57
2022/08/23 02:11:56;;;;;;;3.30;2.75;;;;;;;;;;5156026;27;20039;-58
2022/08/23 02:14:22;;;;;;;6.63;3.03;;;;;;;;;;5156661;27;20079;-57
2022/08/23 02:16:50;;;;;;;4.90;3.63;;;;;;;;;;5155771;27;20015;-58
2022/08/23 02:19:16;;;;;;;3.97;2.63;;;;;;;;;;5155939;27;20023;-58
2022/08/23 02:21:42;;;;;;;5.28;2.58;;;;;;;;;;5155982;27;20022;-57
2022/08/23 02:24:10;;;;;;;4.70;2.63;;;;;;;;;;5155968;27;20460;-58
2022/08/23 02:26:37;;;;;;;4.68;2.58;;;;;;;;;;5155883;27;20023;-57
2022/08/23 02:29:03;;;;;;;5.13;2.60;;;;;;;;;;5155806;27;20114;-57
2022/08/23 02:31:29;;;;;;;3.63;2.50;;;;;;;;;;5155717;27;20015;-58
2022/08/23 02:33:55;;;;;;;5.88;3.38;;;;;;;;;;5156017;27;20021;-58
2022/08/23 02:36:21;;;;;;;4.28;2.53;;;;;;;;;;5156075;27;20023;-58
2022/08/23 02:38:47;;;;;;;3.80;2.90;;;;;;;;;;5156026;27;20421;-57
2022/08/23 02:41:13;;;;;;;4.00;2.70;;;;;;;;;;5155610;27;20019;-58
2022/08/23 02:43:39;;;;;;;4.07;2.65;;;;;;;;;;5156454;27;20031;-58
2022/08/23 02:46:05;;;;;;;5.35;3.03;;;;;;;;;;5155606;27;20018;-58
2022/08/23 02:48:33;;;;;;;3.38;3.03;;;;;;;;;;5155319;27;20076;-57
2022/08/23 02:51:00;;;;;;;4.75;2.83;;;;;;;;;;5155503;27;20393;-57
2022/08/23 02:53:26;;;;;;;5.15;2.72;;;;;;;;;;5155984;27;20392;-58
2022/08/23 02:55:52;;;;;;;4.38;2.78;;;;;;;;;;5155861;27;20492;-57
2022/08/23 02:58:18;;;;;;;4.63;3.35;;;;;;;;;;5156086;27;20095;-58
2022/08/23 03:00:48;;;;;;;4.57;3.22;;;;;;;;;;5156089;27;20448;-57
2022/08/23 03:03:14;;;;;;;3.20;2.58;;;;;;;;;;5156108;27;20033;-58
2022/08/23 03:05:41;;;;;;;3.38;2.97;;;;;;;;;;5155669;27;20483;-58
2022/08/23 03:08:07;;;;;;;4.13;2.78;;;;;;;;;;5155467;27;20075;-58
2022/08/23 03:10:33;;;;;;;3.90;2.72;;;;;;;;;;5156214;27;20033;-58
2022/08/23 03:12:59;;;;;;;5.28;3.05;;;;;;;;;;5155642;27;20096;-58
2022/08/23 03:15:25;;;;;;;2.88;2.10;;;;;;;;;;5155673;27;20482;-58
2022/08/23 03:17:51;;;;;;;3.67;2.40;;;;;;;;;;5155290;27;20019;-57
2022/08/23 03:20:17;;;;;;;3.85;2.53;;;;;;;;;;5155281;27;20460;-58
2022/08/23 03:22:43;;;;;;;3.58;2.40;;;;;;;;;;5155649;27;20027;-57
2022/08/23 03:25:09;;;;;;;3.95;2.60;;;;;;;;;;5155321;27;20067;-57
2022/08/23 03:27:35;;;;;;;4.28;2.80;;;;;;;;;;5155301;27;20035;-58
2022/08/23 03:30:01;;;;;;;5.28;2.65;;;;;;;;;;5155301;27;20022;-57
2022/08/23 03:32:27;;;;;;;3.97;2.90;;;;;;;;;;5155174;27;20057;-57
2022/08/23 03:34:53;;;;;;;5.65;3.05;;;;;;;;;;5155930;27;20447;-58
2022/08/23 03:37:19;;;;;;;9.23;3.13;;;;;;;;;;5155571;27;20022;-57
2022/08/23 03:39:45;;;;;;;3.40;2.60;;;;;;;;;;5155259;27;20030;-58
2022/08/23 03:42:11;;;;;;;4.28;2.65;;;;;;;;;;5155309;27;20022;-57
2022/08/23 03:44:37;;;;;;;3.88;3.13;;;;;;;;;;5155777;27;20023;-58
2022/08/23 03:47:04;;;;;;;4.03;3.08;;;;;;;;;;5154930;27;20425;-57
2022/08/23 03:49:31;;;;;;;4.43;2.95;;;;;;;;;;5155954;27;20027;-58
2022/08/23 03:51:57;;;;;;;5.55;2.92;;;;;;;;;;5154492;27;20155;-57
2022/08/23 03:54:23;;;;;;;5.63;2.78;;;;;;;;;;5155656;27;20071;-58
2022/08/23 03:56:54;;;;;;;4.15;2.70;;;;;;;;;;5155006;27;20030;-57
2022/08/23 03:59:20;;;;;;;3.55;2.50;;;;;;;;;;5155354;27;20057;-58
2022/08/23 04:01:46;;;;;;;3.95;2.90;;;;;;;;;;5157386;27;20058;-57
2022/08/23 04:04:12;;;;;;;4.22;2.83;;;;;;;;;;5159156;27;20076;-58
2022/08/23 04:06:38;;;;;;;3.42;2.60;;;;;;;;;;5158692;27;20055;-57
2022/08/23 04:09:04;;;;;;;3.67;2.63;;;;;;;;;;5158655;27;20018;-58
2022/08/23 04:11:31;;;;;;;6.10;3.42;;;;;;;;;;5158529;27;20360;-58
2022/08/23 04:13:57;;;;;;;3.40;2.13;;;;;;;;;;5159447;27;20026;-57
2022/08/23 04:16:23;;;;;;;3.40;2.58;;;;;;;;;;5158804;27;20558;-57
2022/08/23 04:18:49;;;;;;;5.00;2.88;;;;;;;;;;5158530;27;20056;-58
2022/08/23 04:21:17;;;;;;;6.28;3.15;;;;;;;;;;5158730;27;20058;-58
2022/08/23 04:23:43;;;;;;;3.65;2.40;;;;;;;;;;5158762;27;20027;-58
2022/08/23 04:26:09;;;;;;;3.53;2.70;;;;;;;;;;5158335;27;20034;-58
2022/08/23 04:28:35;;;;;;;3.90;3.08;;;;;;;;;;5158597;27;20023;-57
2022/08/23 04:31:03;;;;;;;3.47;2.70;;;;;;;;;;5158220;27;20023;-58
2022/08/23 04:33:33;;;;;;;2.80;1.90;;;;;;;;;;5158727;27;20117;-57
2022/08/23 04:35:59;;;;;;;6.00;3.30;;;;;;;;;;5158434;27;20050;-57
2022/08/23 04:38:26;;;;;;;4.45;2.47;;;;;;;;;;5158071;27;20075;-58
2022/08/23 04:43:37;;;;;;;4.72;2.60;;;;;;;;;;5158387;27;20034;-57
2022/08/23 04:46:04;;;;;;;6.63;3.10;;;;;;;;;;5157981;27;20030;-57
2022/08/23 04:48:30;;;;;;;3.10;2.28;;;;;;;;;;5158465;27;20054;-58
2022/08/23 04:50:57;;;;;;;2.97;2.30;;;;;;;;;;5157698;27;20055;-57
2022/08/23 04:53:23;;;;;;;6.80;2.90;;;;;;;;;;5157733;27;20035;-57
2022/08/23 04:55:51;;;;;;;4.13;2.70;;;;;;;;;;5157793;27;20361;-57
2022/08/23 04:58:17;;;;;;;3.40;2.42;;;;;;;;;;5157710;27;20027;-58
2022/08/23 05:00:43;;;;;;;3.55;2.65;;;;;;;;;;5157708;27;20467;-57
2022/08/23 05:03:09;;;;;;;10.13;3.13;;;;;;;;;;5157993;27;20026;-58
2022/08/23 05:05:35;;;;;;;3.72;2.63;;;;;;;;;;5157628;27;20341;-58
2022/08/23 05:08:01;;;;;;;5.53;2.63;;;;;;;;;;5158080;27;20027;-58
2022/08/23 05:10:27;;;;;;;4.45;2.58;;;;;;;;;;5157463;27;20122;-57
2022/08/23 05:12:54;;;;;;;4.57;2.70;;;;;;;;;;5157601;27;20031;-57
2022/08/23 05:15:20;;;;;;;10.45;3.00;;;;;;;;;;5157342;27;20464;-57
2022/08/23 05:17:45;;;;;;;3.60;2.83;;;;;;;;;;5157359;27;20026;-57
2022/08/23 05:20:11;;;;;;;5.57;3.13;;;;;;;;;;5157628;27;20037;-57
2022/08/23 05:22:39;;;;;;;5.20;3.15;;;;;;;;;;5157839;27;20125;-58
2022/08/23 05:25:06;;;;;;;6.88;3.88;;;;;;;;;;5157786;27;20033;-58
2022/08/23 05:27:32;;;;;;;4.18;2.78;;;;;;;;;;5156847;27;20026;-57
2022/08/23 05:29:58;;;;;;;8.57;3.88;;;;;;;;;;5157346;27;20106;-57
2022/08/23 05:32:24;;;;;;;5.18;3.28;;;;;;;;;;5156957;27;20037;-58
2022/08/23 05:34:50;;;;;;;7.85;3.25;;;;;;;;;;5157355;27;20044;-57
2022/08/23 05:37:16;;;;;;;4.57;3.22;;;;;;;;;;5156923;27;20063;-57
2022/08/23 05:39:42;;;;;;;3.78;3.05;;;;;;;;;;5156820;27;20028;-58
2022/08/23 05:42:10;;;;;;;5.07;3.22;;;;;;;;;;5156847;27;20030;-58
2022/08/23 05:44:36;;;;;;;5.28;3.30;;;;;;;;;;5156839;27;20038;-58
2022/08/23 05:47:03;;;;;;;5.32;2.90;;;;;;;;;;5157300;27;20504;-58
2022/08/23 05:49:29;;;;;;;4.10;2.78;;;;;;;;;;5156950;27;20052;-57
2022/08/23 05:51:55;;;;;;;5.07;3.05;;;;;;;;;;5156304;27;20046;-58
2022/08/23 05:54:21;;;;;;;4.25;2.88;;;;;;;;;;5156935;27;20026;-58
2022/08/23 05:56:47;;;;;;;4.38;3.13;;;;;;;;;;5156559;27;20026;-57
2022/08/23 05:59:15;;;;;;;5.72;2.65;;;;;;;;;;5156557;27;20023;-58
2022/08/23 06:01:41;;;;;;;4.53;3.05;;;;;;;;;;5156947;27;20026;-58
2022/08/23 06:04:10;;;;;;;4.38;3.05;;;;;;;;;;5157046;27;20055;-57
2022/08/23 06:06:36;;;;;;;8.45;3.38;;;;;;;;;;5156316;27;20452;-58
2022/08/23 06:09:04;;;;;;;5.20;3.90;;;;;;;;;;5156593;27;20363;-58
2022/08/23 06:11:30;;;;;;;5.35;3.47;;;;;;;;;;5156245;27;20014;-58
2022/08/23 06:13:57;;;;;;;3.75;2.88;;;;;;;;;;5156777;27;20034;-58
2022/08/23 06:16:25;;;;;;;7.13;3.97;;;;;;;;;;5156085;27;20106;-58
2022/08/23 06:18:51;;;;;;;6.15;3.85;;;;;;;;;;5156016;27;20023;-58
2022/08/23 06:21:17;;;;;;;5.35;3.95;;;;;;;;;;5156257;27;20368;-57
2022/08/23 06:23:45;;;;;;;4.80;3.58;;;;;;;;;;5155381;27;20023;-57
2022/08/23 06:26:12;;;;;;;8.05;4.13;;;;;;;;;;5155932;27;20460;-58
2022/08/23 06:28:38;;;;;;;6.93;4.35;;;;;;;;;;5156237;27;20102;-58
2022/08/23 06:31:05;;;;;;;4.75;3.88;;;;;;;;;;5156186;27;20023;-58
2022/08/23 06:33:31;;;;;;;7.15;4.38;;;;;;;;;;5155910;27;20027;-58
2022/08/23 06:36:04;;;;;;;7.82;4.28;;;;;;;;;;5155830;27;20191;-58
2022/08/23 06:38:31;;;;;;;6.70;4.75;;;;;;;;;;5155716;27;20529;-58
2022/08/23 06:41:01;;;;;;;7.63;4.50;;;;;;;;;;5156205;27;20031;-58
2022/08/23 06:43:27;;;;;;;13.52;4.10;;;;;;;;;;5156346;27;20027;-58
2022/08/23 06:45:53;;;;;;;6.70;4.43;;;;;;;;;;5156217;27;20095;-58
2022/08/23 06:48:18;;;;;;;4.15;3.72;;;;;;;;;;5156264;27;20433;-58
2022/08/23 06:50:44;;;;;;;5.63;3.55;;;;;;;;;;5155567;27;20384;-58
2022/08/23 06:53:11;;;;;;;4.57;3.50;;;;;;;;;;5155870;27;20053;-58
2022/08/23 06:55:38;;;;;;;6.07;3.45;;;;;;;;;;5155543;27;20058;-58
2022/08/23 06:58:04;;;;;;;5.68;4.20;;;;;;;;;;5155538;27;20410;-58
2022/08/23 07:00:30;;;;;;;5.47;4.18;;;;;;;;;;5156144;27;20023;-58
2022/08/23 07:02:56;;;;;;;8.88;4.07;;;;;;;;;;5155878;27;20031;-58
2022/08/23 07:05:22;;;;;;;4.68;3.50;;;;;;;;;;5155501;27;20105;-58
2022/08/23 07:07:48;;;;;;;6.28;3.70;;;;;;;;;;5155416;27;20054;-58
2022/08/23 07:10:14;;;;;;;7.22;3.75;;;;;;;;;;5155962;27;20019;-58
2022/08/23 07:12:41;;;;;;;4.85;3.47;;;;;;;;;;5155574;27;20456;-58
2022/08/23 07:15:07;;;;;;;5.18;4.15;;;;;;;;;;5155388;27;20096;-58
2022/08/23 07:17:34;;;;;;;8.80;3.47;;;;;;;;;;5155714;27;20019;-58
2022/08/23 07:20:00;;;;;;;3.70;3.22;;;;;;;;;;5155288;27;20027;-58
2022/08/23 07:22:26;;;;;;;4.60;3.50;;;;;;;;;;5155899;27;20033;-58
2022/08/23 07:24:52;;;;;;;6.07;3.50;;;;;;;;;;5155450;27;20349;-58
2022/08/23 07:27:18;;;;;;;5.28;3.47;;;;;;;;;;5155284;27;20376;-58
2022/08/23 07:29:44;;;;;;;9.48;3.88;;;;;;;;;;5155317;27;20023;-58
2022/08/23 07:32:10;;;;;;;8.48;3.78;;;;;;;;;;5155076;27;20052;-58
2022/08/23 07:34:36;;;;;;;10.38;4.53;;;;;;;;;;5155783;27;20042;-58
2022/08/23 07:37:03;;;;;;;4.15;3.35;;;;;;;;;;5159304;27;20023;-58
2022/08/23 07:39:30;;;;;;;3.35;2.63;;;;;;;;;;5160104;27;20019;-58
2022/08/23 07:41:58;;;;;;;4.18;3.13;;;;;;;;;;5158890;27;20023;-58
2022/08/23 07:44:23;;;;;;;3.72;3.17;;;;;;;;;;5159735;27;20052;-58
2022/08/23 07:46:49;;;;;;;3.40;3.10;;;;;;;;;;5159400;27;20028;-58
2022/08/23 07:49:15;;;;;;;4.00;3.10;;;;;;;;;;5159382;27;20066;-58
2022/08/23 07:51:44;;;;;;;4.10;3.38;;;;;;;;;;5159144;27;20047;-58
2022/08/23 07:54:11;;;;;;;3.92;3.13;;;;;;;;;;5159857;27;20033;-58
2022/08/23 07:56:38;;;;;;;5.65;2.83;;;;;;;;;;5158937;27;20448;-58
2022/08/23 07:59:04;;;;;;;8.52;3.13;;;;;;;;;;5158908;27;20031;-58
2022/08/23 08:01:30;;;;;;;3.63;2.83;;;;;;;;;;5158856;27;20364;-58
2022/08/23 08:03:57;;;;;;;5.18;2.65;;;;;;;;;;5159153;27;20037;-59
2022/08/23 08:06:24;;;;;;;3.60;2.70;;;;;;;;;;5158778;27;20023;-58
2022/08/23 08:08:50;;;;;;;3.65;2.45;;;;;;;;;;5158685;27;20027;-59
2022/08/23 08:11:17;;;;;;;6.28;3.08;;;;;;;;;;5158416;27;20064;-59
2022/08/23 08:13:45;;;;;;;3.55;2.40;;;;;;;;;;5159366;27;20030;-59
2022/08/23 08:16:19;;;;;;;3.70;2.53;;;;;;;;;;5158167;27;20516;-59
2022/08/23 08:18:45;;;;;;;4.57;2.75;;;;;;;;;;5158907;27;20027;-58
2022/08/23 08:21:13;;;;;;;3.15;2.47;;;;;;;;;;5158945;27;20018;-58
2022/08/23 08:23:39;;;;;;;7.25;3.08;;;;;;;;;;5158418;27;20026;-58
2022/08/23 08:26:07;;;;;;;2.95;2.28;;;;;;;;;;5158691;27;20131;-58
2022/08/23 08:28:34;;;;;;;4.20;2.80;;;;;;;;;;5158284;27;20025;-59
2022/08/23 08:31:01;;;;;;;3.88;2.42;;;;;;;;;;5158456;27;20030;-58
2022/08/23 08:33:27;;;;;;;3.72;2.50;;;;;;;;;;5158891;27;20037;-59
2022/08/23 08:35:53;;;;;;;4.13;2.65;;;;;;;;;;5157803;27;20026;-59
2022/08/23 08:38:19;;;;;;;3.85;2.53;;;;;;;;;;5158728;27;20027;-59
2022/08/23 08:40:45;;;;;;;7.05;3.67;;;;;;;;;;5158614;27;20018;-58
2022/08/23 08:43:20;;;;;;;5.03;3.47;;;;;;;;;;5157966;27;20118;-59
2022/08/23 08:46:03;;;;;;;5.45;3.60;;;;;;;;;;5158503;27;20026;-58
2022/08/23 08:48:34;;;;;;;7.25;3.22;;;;;;;;;;5157535;27;20071;-59
2022/08/23 08:51:03;;;;;;;4.03;2.67;;;;;;;;;;5158049;27;20054;-59
2022/08/23 08:53:37;;;;;;;4.97;2.72;;;;;;;;;;5157731;27;20050;-59
2022/08/23 08:56:12;;;;;;;3.67;1.77;;;;;;;;;;5157519;27;20023;-59
2022/08/23 08:58:41;;;;;;;4.03;2.55;;;;;;;;;;5157738;27;20022;-59
2022/08/23 09:01:07;;;;;;;2.67;1.92;;;;;;;;;;5157970;27;20090;-59
2022/08/23 09:03:35;;;;;;;4.68;2.30;;;;;;;;;;5157768;27;20027;-59
2022/08/23 09:06:10;;;;;;;4.68;1.92;;;;;;;;;;5157631;27;20049;-59
2022/08/23 09:08:42;;;;;;;3.45;2.78;;;;;;;;;;5158106;27;20027;-59
2022/08/23 09:11:24;;;;;;;5.10;2.35;;;;;;;;;;5157808;27;20018;-59
2022/08/23 09:14:13;;;;;;;3.30;2.30;;;;;;;;;;5157719;27;20034;-59
2022/08/23 09:16:50;;;;;;;4.32;2.60;;;;;;;;;;5157397;27;20072;-59
2022/08/23 09:19:17;;;;;;;4.10;1.88;;;;;;;;;;5157981;27;20014;-59
2022/08/23 09:21:46;;;;;;;3.53;2.05;;;;;;;;;;5157268;27;20044;-59
2022/08/23 09:24:12;;;;;;;2.35;1.73;;;;;;;;;;5157863;27;20026;-59
2022/08/23 09:26:38;;;;;;;2.58;1.77;;;;;;;;;;5157116;27;20022;-59
2022/08/23 09:29:10;;;;;;;2.88;1.65;;;;;;;;;;5157158;27;20051;-59
2022/08/23 09:31:41;;;;;;;2.30;1.40;;;;;;;;;;5155773;27;20019;-59
2022/08/23 09:34:07;;;;;;;2.33;1.65;;;;;;;;;;5157003;27;20523;-59
2022/08/23 09:36:34;;;;;;;3.90;2.22;;;;;;;;;;5157027;27;20073;-59
2022/08/23 09:39:01;;;;;;;2.60;1.60;;;;;;;;;;5157019;27;20023;-59
2022/08/23 09:41:49;;;;;;;4.05;1.67;;;;;;;;;;5156962;27;20038;-59
2022/08/23 09:44:29;;;;;;;2.50;1.40;;;;;;;;;;5157388;27;20460;-59
2022/08/23 09:47:04;;;;;;;3.35;1.88;;;;;;;;;;5157306;27;20026;-59
2022/08/23 09:49:30;;;;;;;3.28;1.83;;;;;;;;;;5157315;27;20026;-59
2022/08/23 09:51:59;;;;;;;3.13;1.88;;;;;;;;;;5156858;27;20088;-59
2022/08/23 09:54:28;;;;;;;3.45;1.73;;;;;;;;;;5156971;27;20051;-59
2022/08/23 09:57:07;;;;;;;4.90;1.75;;;;;;;;;;5156798;27;20159;-59
2022/08/23 09:59:44;;;;;;;3.95;1.70;;;;;;;;;;5156368;27;20023;-59
2022/08/23 10:02:23;;;;;;;7.20;1.80;;;;;;;;;;5156328;27;20030;-59
2022/08/23 10:04:52;;;;;;;2.20;1.50;;;;;;;;;;5156493;27;20023;-59
2022/08/23 10:07:24;;;;;;;2.63;1.45;;;;;;;;;;5156642;27;20101;-59
2022/08/23 10:09:50;;;;;;;3.95;1.70;;;;;;;;;;5156659;27;20027;-59
2022/08/23 10:12:16;;;;;;;3.67;1.45;;;;;;;;;;5156418;27;20027;-59
2022/08/23 10:14:42;;;;;;;1.98;1.50;;;;;;;;;;5156572;27;20027;-59
2022/08/23 10:17:29;;;;;;;3.72;1.63;;;;;;;;;;5156639;27;20011;-59
2022/08/23 10:19:55;;;;;;;4.07;2.42;;;;;;;;;;5157175;27;20431;-59
2022/08/23 10:22:27;;;;;;;1.90;1.05;;;;;;;;;;5155999;27;20460;-59
2022/08/23 10:25:11;;;;;;;3.45;1.80;;;;;;;;;;5156137;27;20019;-59
2022/08/23 10:30:40;;;;;;;2.58;1.70;;;;;;;;;;5156001;27;20590;-59
2022/08/23 10:33:29;;;;;;;2.40;1.40;;;;;;;;;;5155559;27;20185;-59
2022/08/23 10:36:15;;;;;;;2.63;1.60;;;;;;;;;;5156179;27;20037;-59
2022/08/23 10:38:41;;;;;;;3.88;1.77;;;;;;;;;;5156419;27;20110;-59
2022/08/23 10:41:07;;;;;;;2.63;1.50;;;;;;;;;;5156013;27;20071;-59
2022/08/23 10:43:36;;;;;;;3.10;1.52;;;;;;;;;;5155946;27;20468;-59
2022/08/23 10:46:03;;;;;;;2.42;1.50;;;;;;;;;;5155997;27;20022;-59
2022/08/23 10:48:31;;;;;;;2.47;1.70;;;;;;;;;;5156201;27;20462;-59
2022/08/23 10:51:17;;;;;;;2.60;1.45;;;;;;;;;;5155966;27;20448;-59
2022/08/23 10:53:46;;;;;;;2.75;1.73;;;;;;;;;;5156186;27;20359;-59
2022/08/23 10:56:17;;;;;;;2.92;1.80;;;;;;;;;;5155588;27;20033;-59
2022/08/23 10:58:52;;;;;;;3.60;1.98;;;;;;;;;;5156199;27;20107;-59
2022/08/23 11:01:23;;;;;;;2.67;1.35;;;;;;;;;;5155541;27;20140;-59
2022/08/23 11:04:06;;;;;;;4.78;1.50;;;;;;;;;;5155884;27;20022;-59
2022/08/23 11:06:35;;;;;;;2.88;1.52;;;;;;;;;;5155768;27;20026;-59
2022/08/23 11:09:06;;;;;;;3.50;2.03;;;;;;;;;;5155464;27;20043;-59
2022/08/23 11:11:42;;;;;;;2.17;1.17;;;;;;;;;;5158927;27;20031;-59
2022/08/23 11:14:09;;;;;;;3.78;1.88;;;;;;;;;;5159689;27;20062;-59
2022/08/23 11:16:37;;;;;;;3.63;1.95;;;;;;;;;;5159539;27;20031;-59
2022/08/23 11:19:03;;;;;;;2.72;1.50;;;;;;;;;;5160192;27;20029;-59
2022/08/23 11:21:41;;;;;;;4.07;1.73;;;;;;;;;;5159559;27;20515;-59
2022/08/23 11:24:13;;;;;;;2.03;1.17;;;;;;;;;;5159593;27;20037;-59
2022/08/23 11:26:40;;;;;;;1.90;1.30;;;;;;;;;;5159571;27;20394;-59
2022/08/23 11:29:06;;;;;;;3.28;1.60;;;;;;;;;;5159317;27;20027;-59
2022/08/23 11:31:34;;;;;;;4.82;2.00;;;;;;;;;;5159305;27;20030;-59
2022/08/23 11:34:05;;;;;;;2.45;1.60;;;;;;;;;;5159884;27;20034;-59
2022/08/23 11:36:32;;;;;;;2.00;1.60;;;;;;;;;;5159309;27;20036;-59
2022/08/23 11:38:58;;;;;;;4.68;1.95;;;;;;;;;;5159827;27;20026;-59
2022/08/23 11:41:24;;;;;;;3.10;1.70;;;;;;;;;;5158912;27;20523;-59
2022/08/23 11:43:56;;;;;;;2.80;1.83;;;;;;;;;;5159863;27;20444;-59
2022/08/23 11:46:25;;;;;;;2.53;1.67;;;;;;;;;;5159623;27;20122;-59
2022/08/23 11:48:54;;;;;;;5.03;1.40;;;;;;;;;;5159662;27;20023;-59
2022/08/23 11:51:39;;;;;;;4.28;1.98;;;;;;;;;;5159675;27;20280;-59
2022/08/23 11:54:19;;;;;;;2.65;1.90;;;;;;;;;;5159488;27;20126;-59
2022/08/23 11:56:45;;;;;;;;;;;;;;;;;;5159461;27;20394;-59
2022/08/23 11:59:17;;;;;;;2.45;1.58;;;;;;;;;;5159244;27;19910;-59
2022/08/23 12:01:45;;;;;;;3.45;1.63;;;;;;;;;;5158873;27;20368;-59
2022/08/23 12:04:26;;;;;;;2.67;1.50;;;;;;;;;;5158045;27;20456;-59
2022/08/23 12:06:57;;;;;;;2.33;1.52;;;;;;;;;;5158824;27;20019;-59
2022/08/23 12:09:24;;;;;;;3.92;1.60;;;;;;;;;;5158704;27;20030;-59
2022/08/23 12:11:57;;;;;;;5.43;1.77;;;;;;;;;;5158470;27;20023;-59
2022/08/23 12:14:42;;;;;;;2.67;1.48;;;;;;;;;;5159116;27;20435;-59
2022/08/23 12:17:17;;;;;;;4.05;1.42;;;;;;;;;;5158168;27;20464;-59
2022/08/23 12:19:48;;;;;;;3.17;2.05;;;;;;;;;;5159331;27;20359;-59
2022/08/23 12:22:16;;;;;;;4.63;1.88;;;;;;;;;;5157259;27;20120;-59
2022/08/23 12:24:45;;;;;;;2.88;1.50;;;;;;;;;;5158494;27;20097;-59
2022/08/23 12:27:32;;;;;;;2.78;1.70;;;;;;;;;;5156802;27;20030;-59
2022/08/23 12:29:58;;;;;;;3.75;1.95;;;;;;;;;;5158577;27;20532;-59
2022/08/23 12:32:27;;;;;;;3.03;1.80;;;;;;;;;;5158144;27;20059;-59
2022/08/23 12:35:03;;;;;;;4.90;2.17;;;;;;;;;;5158421;27;20460;-59
2022/08/23 12:37:48;;;;;;;2.72;1.90;;;;;;;;;;5158372;27;20015;-59
2022/08/23 12:40:20;;;;;;;2.80;2.00;;;;;;;;;;5158088;27;20031;-59
2022/08/23 12:42:47;;;;;;;3.08;1.98;;;;;;;;;;5158098;27;20376;-59
2022/08/23 12:45:24;;;;;;;5.03;2.00;;;;;;;;;;5158489;27;20340;-59
2022/08/23 12:47:57;;;;;;;2.80;1.63;;;;;;;;;;5158304;27;20019;-59
2022/08/23 12:50:26;;;;;;;2.80;1.85;;;;;;;;;;5157750;27;20019;-59
2022/08/23 12:52:57;;;;;;;2.78;1.85;;;;;;;;;;5157760;27;20030;-59
2022/08/23 12:55:23;;;;;;;4.95;1.67;;;;;;;;;;5157764;27;20408;-59
2022/08/23 12:57:54;;;;;;;3.55;2.05;;;;;;;;;;5157775;27;20080;-59
2022/08/23 13:00:38;;;;;;;2.22;1.25;;;;;;;;;;5157621;27;20050;-59
2022/08/23 13:03:16;;;;;;;2.45;1.83;;;;;;;;;;5157848;27;20023;-59
2022/08/23 13:05:45;;;;;;;3.60;1.65;;;;;;;;;;5157794;27;20468;-59
2022/08/23 13:08:13;;;;;;;2.08;1.30;;;;;;;;;;5158375;27;20114;-59
2022/08/23 13:10:41;;;;;;;3.35;2.05;;;;;;;;;;5158269;27;20023;-59
2022/08/23 13:13:09;;;;;;;2.67;1.52;;;;;;;;;;5157910;27;20019;-59
2022/08/23 13:15:39;;;;;;;3.30;2.00;;;;;;;;;;5158238;27;20130;-59
2022/08/23 13:18:05;;;;;;;5.20;1.70;;;;;;;;;;5157288;27;20030;-60
2022/08/23 13:20:31;;;;;;;2.10;1.58;;;;;;;;;;5157438;27;20018;-59
2022/08/23 13:23:02;;;;;;;2.72;1.58;;;;;;;;;;5157855;27;20026;-59
2022/08/23 13:25:33;;;;;;;2.95;1.77;;;;;;;;;;5157775;27;20023;-59
2022/08/23 13:28:23;;;;;;;2.53;1.67;;;;;;;;;;5157201;27;20034;-59
2022/08/23 13:31:00;;;;;;;2.33;1.73;;;;;;;;;;5149752;27;20513;-60
2022/08/23 13:33:25;;;;;;;2.72;1.63;;;;;;;;;;5157408;27;20030;-59
2022/08/23 13:36:05;;;;;;;2.40;2.00;;;;;;;;;;5157550;27;20027;-59
2022/08/23 13:38:31;;;;;;;2.93;1.80;;;;;;;;;;5157569;27;20409;-59
2022/08/23 13:40:59;;;;;;;3.78;1.92;;;;;;;;;;5157202;27;20258;-59
2022/08/23 13:43:27;;;;;;;2.17;1.50;;;;;;;;;;5157349;27;20034;-60
2022/08/23 13:45:54;;;;;;;2.70;1.80;;;;;;;;;;5157426;27;20027;-59
2022/08/23 13:48:40;;;;;;;2.53;1.73;;;;;;;;;;5157296;27;20015;-59
2022/08/23 13:51:36;;;;;;;3.83;1.73;;;;;;;;;;5145968;27;20383;-59
2022/08/23 13:54:03;;;;;;;3.35;1.70;;;;;;;;;;5147091;27;20396;-59
2022/08/23 13:56:31;;;;;;;2.35;1.60;;;;;;;;;;5156961;27;20444;-60
2022/08/23 13:58:59;;;;;;;3.65;2.05;;;;;;;;;;5157337;27;20019;-60
2022/08/23 14:01:25;;;;;;;4.80;1.83;;;;;;;;;;5156552;27;20026;-59
2022/08/23 14:03:51;;;;;;;7.00;2.33;;;;;;;;;;5157075;27;20019;-59
2022/08/23 14:06:17;;;;;;;3.60;1.65;;;;;;;;;;5156443;27;20106;-59
2022/08/23 14:08:43;;;;;;;3.13;1.45;;;;;;;;;;5156418;27;20440;-59
2022/08/23 14:11:10;;;;;;;2.58;1.70;;;;;;;;;;5156359;27;20105;-59
2022/08/23 14:13:36;;;;;;;3.08;2.15;;;;;;;;;;5156199;27;20030;-59
2022/08/23 14:16:07;;;;;;;9.50;2.22;;;;;;;;;;5156501;27;20015;-59
2022/08/23 14:18:33;;;;;;;4.45;2.13;;;;;;;;;;5155867;27;20533;-59
2022/08/23 14:20:59;;;;;;;3.80;1.98;;;;;;;;;;5156129;27;20089;-60
2022/08/23 14:23:26;;;;;;;2.50;1.77;;;;;;;;;;5156703;27;20031;-59
2022/08/23 14:25:54;;;;;;;4.18;2.50;;;;;;;;;;5155857;27;20077;-59
2022/08/23 14:28:21;;;;;;;2.63;1.42;;;;;;;;;;5155926;27;20019;-59
2022/08/23 14:30:47;;;;;;;1.77;1.20;;;;;;;;;;5156556;27;20047;-59
2022/08/23 14:33:13;;;;;;;2.33;1.70;;;;;;;;;;5156278;27;20106;-59
2022/08/23 14:35:38;;;;;;;2.47;1.55;;;;;;;;;;5156253;27;20030;-59
2022/08/23 14:38:04;;;;;;;2.75;1.88;;;;;;;;;;5155690;27;20643;-59
2022/08/23 14:40:31;;;;;;;3.40;1.75;;;;;;;;;;5155851;27;20026;-59
2022/08/23 14:42:57;;;;;;;2.47;1.77;;;;;;;;;;5155811;27;20038;-59
2022/08/23 14:45:23;;;;;;;2.47;1.52;;;;;;;;;;5155710;27;20033;-59
2022/08/23 14:47:49;;;;;;;3.38;1.95;;;;;;;;;;5156537;27;20348;-59
2022/08/23 14:50:15;;;;;;;3.33;2.20;;;;;;;;;;5155118;27;20088;-59
2022/08/23 14:52:43;;;;;;;4.45;2.00;;;;;;;;;;5155646;27;20094;-59
2022/08/23 14:55:10;;;;;;;3.60;2.08;;;;;;;;;;5155609;27;20121;-59
2022/08/23 14:57:36;;;;;;;3.33;1.88;;;;;;;;;;5155930;27;20034;-59
2022/08/23 15:00:02;;;;;;;3.00;1.85;;;;;;;;;;5155329;27;20011;-59
2022/08/23 15:02:29;;;;;;;2.78;1.88;;;;;;;;;;5155576;27;20087;-59
2022/08/23 15:04:55;;;;;;;4.40;1.98;;;;;;;;;;5156100;27;20025;-59